Huvudsida
METAR-TAF:

METAR-TAF

Flygplatser :

Karleby-Jakobstad flygplats

Karleby, Finland

latitud: 63-43N, longitud: 023-09E, höjd: 25 m

Aktuellt väderrapport

Denna rapport gjordes för 34 minuter sedan, klockan 09:20 UTC
Vind 10 kt från syd/sydost
Temperatur -3°C
Fuktighet 86%
Tryck 1035 hPa
Sikt 10 km eller mer
Mulet på en höjd av 1800 ft

METAR: EFKK 150920Z AUTO 16010KT 9999 OVC018 M03/M05 Q1035

Tid: 11:54 (09:54 UTC)

Väderprognos

Denna rapport gjordes för 1 timme och 22 minuter sedan, klockan 08:32 UTC
Prognos gäller från 15 kl. 09 UTC till 15 kl. 17 UTC
Vind 7 kt från syd/sydost
Sikt 10 km eller mer
Mulet på en höjd av 2000 ft

TAF: EFKK 150832Z 1509/1517 16007KT 9999 OVC020

Aktuella väderrapporter och prognoser från 4000 flygplatser (METAR- och TAF-rapporter).

De tillgängliga stationerna syns som gula och röda prickar på kartan.

För musen över prickarna för att se namnen på stationerna.

Klicka sedan för att få väderrapporter och prognoser.

För att ändra kartan: Klicka på de gröna knapparna med ett svart kors på för att zooma in; den gröna knappen med ett streck på för att zooma ut; eller på de gröna pilarna för angränsande kartor.


METAR-TAF: